Weather at Deir ez-Zor Airport

Public forecast

Using degrees Celsius for public forecast. Weather courtesy of forecast.io.

Closest aviation weather report (METAR) to Deir ez-Zor Airport

Closest report is Qamishli Airport, 115.2 nm (213.4 km) NNE.

2024/05/24 12:00 (retrieved 2 hours ago)

OSKL 241200Z 07004KT CAVOK 33/00 Q1005

Closest aviation forecast (TAF) to Deir ez-Zor Airport

Forecast is more than 6 hours old.

Closest forecast is Aleppo International Airport, 153.6 nm (284.4 km) WNW.

2024/05/24 06:12 (retrieved 8 hours ago)

TAF TAF OSAP 240400Z 2406/2506 33012KT CAVOK TEMPO 2410/2416 32010KT 9999 SCT030